Terminal Aerodrome Forecast
Issued by NWS

Home | Current Version | Previous Version | Text Only | Print | Product List | Glossary On
Versions: 1 2 3 4 5 6 7 8 9 10 11 12 13 14 15 16 17 18 19 20 21 22 23 24 25 26 27 28 29 30
000
FTPA31 PHFO 170600 AAA
TAFOGG
TAF AMD
PHOG 170657Z 1707/1806 05012KT P6SM SCT030
     FM172000 05015G25KT P6SM SCT030 BKN050
      AMD LTD TO WX VIS AND WIND 1709/1716=

USA.gov is the U.S. government's official web portal to all federal, state and local government web resources and services.